Time;durP1;ratioP1;P1;durP2;ratioP2;P2;SDS_P1;SDS_P2;PMS_P1;PMS_P2;Temp;Humidity;BMP_temperature;BMP_pressure;BME280_temperature;BME280_humidity;BME280_pressure;Samples;Min_cycle;Max_cycle;Signal;HPM_P1;HPM_P2
2023/05/30 00:01:19;;;;;;;17.25;4.13;;;10.80;99.90;;;;;;5013813;28;20050;-66
2023/05/30 00:03:45;;;;;;;17.73;4.05;;;10.90;99.90;;;;;;4997108;28;20073;-66
2023/05/30 00:06:12;;;;;;;13.38;4.03;;;10.90;99.90;;;;;;5013334;28;20045;-66
2023/05/30 00:08:39;;;;;;;19.20;4.47;;;10.90;99.90;;;;;;5013378;28;20120;-66
2023/05/30 00:11:09;;;;;;;14.45;4.28;;;10.90;99.90;;;;;;5013492;28;20073;-66
2023/05/30 00:13:35;;;;;;;18.52;4.30;;;10.90;99.90;;;;;;4996895;28;20103;-66
2023/05/30 00:16:03;;;;;;;19.00;4.22;;;10.90;99.90;;;;;;5014758;28;20030;-66
2023/05/30 00:18:34;;;;;;;19.10;4.32;;;10.90;99.90;;;;;;5012051;28;20053;-66
2023/05/30 00:21:05;;;;;;;13.63;4.05;;;11.00;99.90;;;;;;5013019;28;20045;-66
2023/05/30 00:23:31;;;;;;;14.02;4.22;;;10.90;99.90;;;;;;5014451;28;20037;-66
2023/05/30 00:25:58;;;;;;;13.90;4.32;;;10.90;99.90;;;;;;4996847;28;20038;-66
2023/05/30 00:28:24;;;;;;;16.48;4.30;;;10.90;99.90;;;;;;5013270;28;20099;-66
2023/05/30 00:30:50;;;;;;;13.25;4.20;;;11.00;99.90;;;;;;5012912;28;20046;-65
2023/05/30 00:33:15;;;;;;;14.05;4.22;;;11.00;99.90;;;;;;4980110;28;20077;-66
2023/05/30 00:35:41;;;;;;;13.35;4.20;;;11.00;99.90;;;;;;5012811;28;20399;-65
2023/05/30 00:38:07;;;;;;;13.20;3.90;;;11.00;99.90;;;;;;5012818;28;20041;-66
2023/05/30 00:40:33;;;;;;;13.75;3.95;;;10.90;99.90;;;;;;4996705;28;20617;-66
2023/05/30 00:42:58;;;;;;;15.65;4.28;;;11.00;99.90;;;;;;5012814;28;20124;-66
2023/05/30 00:45:25;;;;;;;12.68;4.40;;;11.00;99.90;;;;;;5012664;28;20049;-66
2023/05/30 00:47:53;;;;;;;12.75;4.43;;;10.90;99.90;;;;;;4996300;28;20096;-66
2023/05/30 00:50:19;;;;;;;14.23;4.53;;;10.90;99.90;;;;;;5013838;28;20163;-66
2023/05/30 00:52:47;;;;;;;11.77;4.35;;;10.90;99.90;;;;;;5012591;28;20046;-66
2023/05/30 00:55:16;;;;;;;16.48;4.78;;;10.80;99.90;;;;;;5012605;28;20053;-66
2023/05/30 00:57:43;;;;;;;14.68;4.50;;;10.80;99.90;;;;;;5012774;28;20500;-66
2023/05/30 01:00:11;;;;;;;14.70;4.75;;;10.80;99.90;;;;;;5012497;28;20049;-66
2023/05/30 01:02:39;;;;;;;13.52;4.78;;;10.90;99.90;;;;;;5012510;28;20050;-66
2023/05/30 01:05:05;;;;;;;13.02;4.97;;;10.90;99.90;;;;;;5012582;28;20398;-66
2023/05/30 01:07:33;;;;;;;14.43;4.68;;;10.90;99.90;;;;;;5013909;28;20121;-66
2023/05/30 01:09:59;;;;;;;16.15;5.13;;;10.90;99.90;;;;;;4996532;28;20049;-66
2023/05/30 01:12:41;;;;;;;13.85;4.63;;;10.80;99.90;;;;;;5012259;28;20053;-66
2023/05/30 01:15:20;;;;;;;14.93;4.97;;;10.80;99.90;;;;;;4995989;28;20041;-66
2023/05/30 01:18:04;;;;;;;13.23;4.82;;;10.80;99.90;;;;;;5012304;28;20042;-66
2023/05/30 01:20:46;;;;;;;16.13;4.65;;;10.80;99.90;;;;;;5011973;28;20136;-66
2023/05/30 01:23:41;;;;;;;15.13;4.90;;;10.80;99.90;;;;;;5012511;28;20042;-66
2023/05/30 01:26:12;;;;;;;14.77;4.85;;;10.80;99.90;;;;;;5012340;28;20053;-66
2023/05/30 01:28:40;;;;;;;16.88;4.80;;;10.80;99.90;;;;;;5011810;28;20080;-66
2023/05/30 01:31:08;;;;;;;16.38;4.53;;;10.80;99.90;;;;;;5013573;28;20045;-66
2023/05/30 01:33:36;;;;;;;13.40;4.82;;;10.80;99.90;;;;;;5012017;28;20050;-66
2023/05/30 01:36:02;;;;;;;13.52;4.65;;;10.80;99.90;;;;;;5012018;28;20049;-67
2023/05/30 01:38:27;;;;;;;15.90;4.95;;;10.80;99.90;;;;;;4995715;28;20478;-66
2023/05/30 01:40:56;;;;;;;16.77;4.80;;;10.80;99.90;;;;;;5012294;28;20101;-67
2023/05/30 01:43:27;;;;;;;12.73;4.70;;;10.80;99.90;;;;;;5013436;28;20525;-68
2023/05/30 01:46:06;;;;;;;14.25;4.95;;;10.80;99.90;;;;;;4995523;28;20089;-66
2023/05/30 01:48:38;;;;;;;17.77;4.88;;;10.80;99.90;;;;;;5013240;28;20038;-66
2023/05/30 01:51:07;;;;;;;17.52;4.97;;;10.80;99.90;;;;;;5011951;28;20033;-66
2023/05/30 01:53:41;;;;;;;15.85;4.68;;;10.80;99.90;;;;;;5012080;28;20050;-66
2023/05/30 01:56:09;;;;;;;13.32;4.53;;;10.80;99.90;;;;;;5012118;28;20121;-66
2023/05/30 01:58:36;;;;;;;16.20;4.85;;;10.80;99.90;;;;;;5011831;28;20379;-66
2023/05/30 02:01:04;;;;;;;15.77;4.93;;;10.80;99.90;;;;;;5012018;28;20049;-66
2023/05/30 02:03:31;;;;;;;16.20;4.95;;;10.80;99.90;;;;;;5012042;28;20128;-66
2023/05/30 02:05:56;;;;;;;13.98;5.05;;;10.80;99.90;;;;;;5011948;28;20046;-66
2023/05/30 02:08:22;;;;;;;16.65;5.20;;;10.80;99.90;;;;;;5011697;28;20038;-66
2023/05/30 02:10:48;;;;;;;13.65;4.70;;;10.80;99.90;;;;;;5011617;28;20383;-66
2023/05/30 02:13:14;;;;;;;15.18;4.88;;;10.80;99.90;;;;;;5011638;28;20406;-66
2023/05/30 02:15:40;;;;;;;14.43;4.72;;;10.80;99.90;;;;;;5011730;28;20078;-66
2023/05/30 02:18:08;;;;;;;12.63;4.78;;;10.80;99.90;;;;;;5011861;28;20046;-66
2023/05/30 02:20:34;;;;;;;13.85;4.72;;;10.80;99.90;;;;;;5012640;28;20062;-66
2023/05/30 02:22:59;;;;;;;14.80;5.00;;;10.80;99.90;;;;;;5011988;28;20064;-66
2023/05/30 02:25:26;;;;;;;15.30;4.80;;;10.80;99.90;;;;;;4995545;28;20054;-66
2023/05/30 02:27:51;;;;;;;15.82;4.93;;;10.70;99.90;;;;;;4995235;28;20096;-66
2023/05/30 02:30:17;;;;;;;15.23;4.85;;;10.80;99.90;;;;;;5011754;28;20482;-66
2023/05/30 02:32:43;;;;;;;14.73;4.95;;;10.70;99.90;;;;;;4995167;28;20053;-66
2023/05/30 02:35:09;;;;;;;17.50;5.35;;;10.70;99.90;;;;;;5011575;28;20096;-66
2023/05/30 02:37:35;;;;;;;13.75;4.65;;;10.70;99.90;;;;;;5011461;28;20157;-66
2023/05/30 02:40:01;;;;;;;13.70;4.80;;;10.70;99.90;;;;;;5011690;28;20077;-66
2023/05/30 02:42:27;;;;;;;14.27;4.93;;;10.70;99.90;;;;;;5015095;28;20545;-66
2023/05/30 02:44:53;;;;;;;17.20;5.10;;;10.70;99.90;;;;;;5016467;28;20096;-66
2023/05/30 02:47:19;;;;;;;16.40;4.57;;;10.70;99.90;;;;;;5016436;28;20513;-66
2023/05/30 02:49:45;;;;;;;15.65;4.45;;;10.70;99.90;;;;;;5015080;28;20525;-65
2023/05/30 02:52:11;;;;;;;15.25;4.68;;;10.70;99.90;;;;;;5014817;28;20401;-66
2023/05/30 02:54:38;;;;;;;11.32;4.18;;;10.70;99.90;;;;;;5014770;28;20040;-66
2023/05/30 02:57:05;;;;;;;13.20;3.97;;;10.60;99.90;;;;;;5014895;28;20046;-66
2023/05/30 02:59:30;;;;;;;13.07;4.50;;;10.60;99.90;;;;;;5014772;28;20117;-66
2023/05/30 03:01:56;;;;;;;16.00;4.45;;;10.60;99.90;;;;;;5014655;28;20128;-66
2023/05/30 03:04:22;;;;;;;15.52;4.53;;;10.70;99.90;;;;;;5015679;28;20037;-66
2023/05/30 03:06:49;;;;;;;13.82;4.65;;;10.70;99.90;;;;;;5014510;28;20042;-67
2023/05/30 03:09:15;;;;;;;15.13;4.22;;;10.70;99.90;;;;;;5014544;28;20125;-67
2023/05/30 03:11:41;;;;;;;14.05;4.13;;;10.70;99.90;;;;;;5014635;28;20490;-67
2023/05/30 03:14:07;;;;;;;14.10;4.38;;;10.70;99.90;;;;;;5014396;28;20045;-67
2023/05/30 03:16:32;;;;;;;12.55;4.10;;;10.70;99.90;;;;;;5014490;28;20038;-66
2023/05/30 03:18:58;;;;;;;12.68;4.55;;;10.70;99.90;;;;;;5014471;28;20133;-66
2023/05/30 03:21:24;;;;;;;14.00;4.00;;;10.70;99.90;;;;;;5014192;28;20053;-67
2023/05/30 03:23:51;;;;;;;18.83;4.90;;;10.70;99.90;;;;;;5014274;28;20081;-67
2023/05/30 03:26:17;;;;;;;12.40;4.20;;;10.70;99.90;;;;;;5014435;28;20046;-66
2023/05/30 03:28:42;;;;;;;17.63;4.60;;;10.70;99.90;;;;;;5014461;28;20095;-67
2023/05/30 03:31:08;;;;;;;12.57;4.30;;;10.70;99.90;;;;;;5013963;28;20038;-68
2023/05/30 03:33:37;;;;;;;13.77;4.22;;;10.60;99.90;;;;;;5014331;28;20108;-68
2023/05/30 03:36:03;;;;;;;14.52;4.38;;;10.70;99.90;;;;;;5014234;28;20489;-66
2023/05/30 03:38:31;;;;;;;15.30;4.50;;;10.70;99.90;;;;;;5014276;28;20042;-67
2023/05/30 03:40:57;;;;;;;15.32;4.60;;;10.70;99.90;;;;;;4997946;28;20061;-67
2023/05/30 03:43:22;;;;;;;15.25;4.70;;;10.70;99.90;;;;;;5015385;28;20053;-66
2023/05/30 03:45:49;;;;;;;12.52;4.47;;;10.70;99.90;;;;;;4997744;28;20493;-66
2023/05/30 03:48:14;;;;;;;15.70;4.88;;;10.70;99.90;;;;;;5013674;28;20049;-66
2023/05/30 03:50:40;;;;;;;14.52;4.75;;;10.70;99.90;;;;;;5013638;28;20053;-66
2023/05/30 03:53:06;;;;;;;12.02;4.32;;;10.70;99.90;;;;;;5014996;28;20038;-66
2023/05/30 03:55:31;;;;;;;13.20;4.25;;;10.70;99.90;;;;;;5013676;28;20050;-66
2023/05/30 03:57:57;;;;;;;15.20;4.60;;;10.70;99.90;;;;;;5013359;28;20042;-66
2023/05/30 04:00:23;;;;;;;19.90;4.60;;;10.70;99.90;;;;;;5013286;28;20065;-66
2023/05/30 04:02:49;;;;;;;17.83;4.57;;;10.80;99.90;;;;;;5014626;28;20325;-66
2023/05/30 04:05:15;;;;;;;16.45;5.10;;;10.80;99.90;;;;;;5013532;28;20038;-66
2023/05/30 04:07:41;;;;;;;16.67;4.55;;;10.80;99.90;;;;;;5014668;28;20038;-66
2023/05/30 04:10:07;;;;;;;15.27;4.72;;;10.80;99.90;;;;;;5014868;28;20046;-66
2023/05/30 04:12:32;;;;;;;12.65;4.18;;;10.90;99.90;;;;;;4997006;28;20045;-66
2023/05/30 04:14:58;;;;;;;14.57;4.30;;;10.90;99.90;;;;;;5013879;28;20052;-66
2023/05/30 04:17:24;;;;;;;13.30;4.50;;;11.00;99.90;;;;;;5013148;28;20041;-66
2023/05/30 04:19:52;;;;;;;15.13;4.40;;;11.00;99.90;;;;;;5013096;28;20058;-66
2023/05/30 04:22:18;;;;;;;13.45;4.50;;;11.00;99.90;;;;;;5013411;28;20046;-66
2023/05/30 04:24:45;;;;;;;15.15;4.60;;;11.00;99.90;;;;;;5013099;28;20107;-66
2023/05/30 04:27:13;;;;;;;15.90;4.75;;;11.10;99.90;;;;;;5013301;28;20141;-66
2023/05/30 04:29:42;;;;;;;15.27;4.80;;;11.10;99.90;;;;;;5013024;28;20045;-66
2023/05/30 04:32:09;;;;;;;13.45;4.40;;;11.10;99.90;;;;;;5012993;28;20122;-66
2023/05/30 04:34:35;;;;;;;12.27;4.50;;;11.20;99.90;;;;;;5013119;28;20045;-66
2023/05/30 04:37:01;;;;;;;12.85;4.50;;;11.30;99.90;;;;;;4996620;28;20042;-66
2023/05/30 04:39:27;;;;;;;14.88;4.60;;;11.30;99.90;;;;;;5012901;28;20061;-66
2023/05/30 04:41:54;;;;;;;14.35;4.65;;;11.30;99.90;;;;;;4980620;28;20046;-66
2023/05/30 04:44:20;;;;;;;13.55;4.07;;;11.40;99.90;;;;;;4996450;28;20056;-66
2023/05/30 04:46:46;;;;;;;13.75;4.30;;;11.40;99.90;;;;;;5013006;28;20045;-66
2023/05/30 04:49:16;;;;;;;13.23;4.10;;;11.40;99.90;;;;;;4996709;28;20558;-66
2023/05/30 04:51:45;;;;;;;17.05;4.60;;;11.40;99.90;;;;;;5012643;28;20042;-66
2023/05/30 04:54:13;;;;;;;17.23;4.55;;;11.50;99.90;;;;;;5012915;28;20045;-66
2023/05/30 04:56:40;;;;;;;15.63;4.45;;;11.50;99.90;;;;;;5012577;28;20038;-66
2023/05/30 04:59:05;;;;;;;13.95;4.20;;;11.50;99.90;;;;;;5012756;28;20375;-66
2023/05/30 05:01:35;;;;;;;13.93;4.57;;;11.50;99.90;;;;;;5012568;28;20042;-66
2023/05/30 05:04:02;;;;;;;12.82;4.47;;;11.60;99.90;;;;;;4996338;28;20046;-66
2023/05/30 05:06:27;;;;;;;13.82;4.45;;;11.60;99.90;;;;;;5013655;28;20048;-66
2023/05/30 05:08:53;;;;;;;15.75;4.22;;;11.60;99.90;;;;;;4996079;28;20041;-66
2023/05/30 05:11:21;;;;;;;14.68;4.75;;;11.70;99.90;;;;;;4995984;28;20046;-66
2023/05/30 05:13:47;;;;;;;15.88;4.63;;;11.70;99.90;;;;;;5012506;28;20050;-66
2023/05/30 05:16:12;;;;;;;18.67;4.50;;;11.70;99.90;;;;;;4995943;28;20048;-66
2023/05/30 05:18:38;;;;;;;15.38;4.60;;;11.80;99.90;;;;;;5011974;28;20054;-66
2023/05/30 05:21:06;;;;;;;12.25;4.20;;;11.80;99.90;;;;;;5013643;28;20192;-66
2023/05/30 05:23:32;;;;;;;11.70;4.10;;;11.80;99.90;;;;;;4996189;28;20073;-66
2023/05/30 05:26:00;;;;;;;14.60;4.60;;;11.90;99.90;;;;;;5012460;28;20527;-66
2023/05/30 05:28:25;;;;;;;12.80;4.40;;;11.90;99.90;;;;;;5012032;28;20052;-66
2023/05/30 05:30:54;;;;;;;14.73;4.30;;;12.00;99.90;;;;;;4995759;28;20132;-66
2023/05/30 05:33:20;;;;;;;15.13;4.55;;;12.00;99.90;;;;;;5013106;28;20100;-66
2023/05/30 05:35:46;;;;;;;14.05;4.20;;;12.10;99.90;;;;;;4996034;28;20038;-66
2023/05/30 05:38:13;;;;;;;19.77;4.68;;;12.10;99.90;;;;;;5012012;28;20109;-66
2023/05/30 05:40:38;;;;;;;14.63;4.80;;;12.10;99.90;;;;;;5012305;28;20120;-66
2023/05/30 05:43:05;;;;;;;15.40;4.03;;;12.20;99.90;;;;;;5012327;28;20129;-66
2023/05/30 05:45:31;;;;;;;14.30;4.20;;;12.20;99.90;;;;;;5011903;28;20085;-66
2023/05/30 05:47:57;;;;;;;16.92;4.40;;;12.20;99.90;;;;;;5012109;28;20073;-66
2023/05/30 05:50:22;;;;;;;15.00;4.50;;;12.30;99.90;;;;;;4995804;28;20073;-66
2023/05/30 05:52:48;;;;;;;14.65;4.63;;;12.30;99.90;;;;;;5011934;28;20042;-66
2023/05/30 05:55:14;;;;;;;14.73;4.32;;;12.30;99.90;;;;;;5012087;28;20363;-66
2023/05/30 05:57:40;;;;;;;16.10;4.22;;;12.30;99.90;;;;;;5011848;28;20053;-66
2023/05/30 06:00:07;;;;;;;13.93;4.20;;;12.30;99.90;;;;;;5012014;28;20121;-66
2023/05/30 06:02:32;;;;;;;15.30;4.40;;;12.30;99.90;;;;;;5012060;28;20509;-66
2023/05/30 06:04:58;;;;;;;16.33;4.47;;;12.30;99.90;;;;;;5011570;28;20042;-66
2023/05/30 06:07:24;;;;;;;14.38;4.15;;;12.30;99.90;;;;;;5011695;28;20458;-66
2023/05/30 06:09:50;;;;;;;13.15;4.20;;;12.30;99.90;;;;;;5011798;28;20079;-65
2023/05/30 06:12:16;;;;;;;14.43;4.20;;;12.30;99.90;;;;;;5011516;28;20056;-66
2023/05/30 06:14:42;;;;;;;17.73;4.60;;;12.40;99.90;;;;;;5012972;28;20034;-66
2023/05/30 06:17:08;;;;;;;15.65;4.10;;;12.40;99.90;;;;;;4981384;28;20042;-66
2023/05/30 06:19:34;;;;;;;18.02;4.40;;;12.40;99.90;;;;;;5015301;28;20108;-66
2023/05/30 06:22:00;;;;;;;13.48;3.53;;;12.40;99.90;;;;;;5015456;28;20061;-66
2023/05/30 06:24:25;;;;;;;11.00;3.80;;;12.40;99.90;;;;;;4999428;28;20448;-66
2023/05/30 06:26:51;;;;;;;12.90;3.53;;;12.40;99.90;;;;;;4999099;28;20053;-66
2023/05/30 06:29:18;;;;;;;13.10;3.72;;;12.30;99.90;;;;;;5015435;28;20048;-66
2023/05/30 06:31:43;;;;;;;13.43;3.70;;;12.30;99.90;;;;;;5016219;28;20137;-66
2023/05/30 06:34:09;;;;;;;13.80;3.75;;;12.30;99.90;;;;;;4998036;28;20120;-66
2023/05/30 06:36:36;;;;;;;13.23;3.60;;;12.30;99.90;;;;;;5015051;28;20537;-66
2023/05/30 06:39:02;;;;;;;14.32;4.18;;;12.20;99.90;;;;;;5015224;28;20073;-66
2023/05/30 06:41:28;;;;;;;10.85;3.60;;;12.20;99.90;;;;;;5014987;28;20073;-66
2023/05/30 06:43:54;;;;;;;11.48;3.58;;;12.20;99.90;;;;;;4982804;28;20533;-66
2023/05/30 06:46:20;;;;;;;11.35;3.53;;;12.30;99.90;;;;;;4998585;28;20084;-66
2023/05/30 06:48:46;;;;;;;11.73;3.60;;;12.30;99.90;;;;;;5014891;28;20492;-65
2023/05/30 06:51:12;;;;;;;12.82;4.13;;;12.30;99.90;;;;;;5014847;28;20103;-66
2023/05/30 06:53:38;;;;;;;10.60;3.70;;;12.30;99.90;;;;;;5015085;28;20053;-66
2023/05/30 06:56:04;;;;;;;13.60;3.70;;;12.30;99.90;;;;;;5014999;28;20038;-66
2023/05/30 06:58:30;;;;;;;13.18;3.67;;;12.20;99.90;;;;;;5014903;28;20176;-66
2023/05/30 07:00:55;;;;;;;10.63;3.70;;;12.30;99.90;;;;;;5014676;28;20052;-66
2023/05/30 07:03:21;;;;;;;12.55;3.63;;;12.30;99.90;;;;;;5014454;28;20533;-66
2023/05/30 07:05:47;;;;;;;10.63;3.78;;;12.30;99.90;;;;;;5014612;28;20041;-65
2023/05/30 07:08:12;;;;;;;13.07;3.88;;;12.30;99.90;;;;;;4998224;28;20056;-65
2023/05/30 07:10:38;;;;;;;12.38;3.90;;;12.30;99.90;;;;;;5014500;28;20046;-66
2023/05/30 07:13:04;;;;;;;11.25;3.95;;;12.40;99.90;;;;;;5014415;28;20502;-67
2023/05/30 07:15:31;;;;;;;13.18;4.07;;;12.40;99.90;;;;;;5014366;28;20077;-67
2023/05/30 07:17:57;;;;;;;11.30;4.05;;;12.40;99.90;;;;;;5014397;28;20042;-67
2023/05/30 07:20:23;;;;;;;13.02;4.10;;;12.30;99.90;;;;;;5014084;28;20089;-67
2023/05/30 07:22:52;;;;;;;13.73;4.40;;;12.40;99.90;;;;;;4998060;28;20066;-67
2023/05/30 07:25:18;;;;;;;12.88;4.63;;;12.40;99.90;;;;;;5014545;28;20434;-67
2023/05/30 07:27:45;;;;;;;12.75;4.43;;;12.40;99.90;;;;;;5013620;28;20044;-66
2023/05/30 07:30:11;;;;;;;13.13;4.18;;;12.40;99.90;;;;;;5015362;28;20081;-66
2023/05/30 07:32:36;;;;;;;15.30;4.68;;;12.40;99.90;;;;;;5013911;28;20084;-65
2023/05/30 07:35:02;;;;;;;12.65;4.60;;;12.40;99.90;;;;;;5013830;28;20041;-66
2023/05/30 07:37:28;;;;;;;12.98;4.40;;;12.40;99.90;;;;;;5014620;28;20042;-65
2023/05/30 07:39:56;;;;;;;13.32;4.30;;;12.40;99.90;;;;;;5013906;28;20041;-65
2023/05/30 07:42:22;;;;;;;11.25;4.15;;;12.40;99.90;;;;;;4998090;28;20046;-66
2023/05/30 07:44:47;;;;;;;14.23;4.53;;;12.50;99.90;;;;;;5014218;28;20042;-65
2023/05/30 07:47:13;;;;;;;13.18;4.55;;;12.50;99.90;;;;;;5013658;28;20049;-65
2023/05/30 07:49:39;;;;;;;13.05;4.80;;;12.50;99.90;;;;;;5015160;28;20069;-69
2023/05/30 07:52:05;;;;;;;14.85;4.40;;;12.50;99.90;;;;;;4981151;28;20129;-65
2023/05/30 07:54:30;;;;;;;12.75;4.70;;;12.50;99.90;;;;;;5013826;28;20057;-65
2023/05/30 07:56:56;;;;;;;12.18;4.15;;;12.50;99.90;;;;;;5014924;28;20129;-66
2023/05/30 07:59:22;;;;;;;10.57;4.00;;;12.60;99.90;;;;;;5013815;28;20038;-66
2023/05/30 08:01:47;;;;;;;10.23;4.03;;;12.60;99.90;;;;;;5013438;28;20046;-65
2023/05/30 08:04:13;;;;;;;9.27;3.60;;;12.70;99.90;;;;;;5013547;28;20115;-66
2023/05/30 08:06:39;;;;;;;14.15;3.75;;;12.70;99.90;;;;;;5014694;28;20053;-65
2023/05/30 08:09:05;;;;;;;11.95;3.70;;;12.60;99.90;;;;;;5013631;28;20042;-65
2023/05/30 08:11:31;;;;;;;9.88;3.33;;;12.70;99.90;;;;;;5013697;28;20096;-65
2023/05/30 08:13:56;;;;;;;10.93;3.50;;;12.70;99.90;;;;;;5013290;28;20121;-65
2023/05/30 08:16:23;;;;;;;10.93;3.40;;;12.70;99.90;;;;;;5013271;28;20386;-66
2023/05/30 08:18:49;;;;;;;9.77;4.10;;;12.70;99.90;;;;;;5013295;28;20057;-66
2023/05/30 08:21:15;;;;;;;13.25;4.07;;;12.70;99.90;;;;;;5013513;28;20044;-67
2023/05/30 08:23:42;;;;;;;10.98;3.88;;;12.70;99.90;;;;;;5013130;28;20120;-65
2023/05/30 08:26:08;;;;;;;10.27;3.95;;;12.70;99.90;;;;;;5013189;28;20099;-64
2023/05/30 08:28:35;;;;;;;11.75;3.90;;;12.60;99.90;;;;;;5013335;28;20137;-65
2023/05/30 08:31:00;;;;;;;12.52;3.80;;;12.70;99.90;;;;;;5012924;28;20049;-67
2023/05/30 08:33:26;;;;;;;11.43;3.65;;;12.70;99.90;;;;;;5012886;28;20188;-65
2023/05/30 08:35:53;;;;;;;10.30;3.78;;;12.80;99.90;;;;;;5012881;28;20082;-65
2023/05/30 08:38:19;;;;;;;9.57;3.55;;;12.90;99.90;;;;;;4996193;28;20050;-66
2023/05/30 08:40:45;;;;;;;11.32;3.50;;;12.90;99.90;;;;;;5013919;28;20034;-65
2023/05/30 08:43:11;;;;;;;8.55;3.22;;;12.90;99.90;;;;;;5013063;28;20038;-65
2023/05/30 08:45:38;;;;;;;9.27;3.53;;;12.80;99.90;;;;;;5012893;28;20056;-66
2023/05/30 08:48:06;;;;;;;7.93;3.05;;;12.90;99.90;;;;;;5012736;28;20045;-65
2023/05/30 08:50:35;;;;;;;9.10;3.10;;;12.90;99.90;;;;;;5012951;28;20057;-65
2023/05/30 08:53:08;;;;;;;6.72;3.03;;;13.00;99.90;;;;;;5012767;28;20502;-65
2023/05/30 08:55:48;;;;;;;7.97;2.97;;;13.00;99.90;;;;;;5012881;28;20068;-65
2023/05/30 08:58:22;;;;;;;8.00;3.00;;;13.00;99.90;;;;;;5012564;28;20057;-65
2023/05/30 09:00:49;;;;;;;7.80;2.90;;;13.10;99.90;;;;;;5014064;28;20038;-65
2023/05/30 09:03:16;;;;;;;8.13;2.80;;;13.00;99.90;;;;;;5012443;28;20046;-65
2023/05/30 09:05:44;;;;;;;8.35;3.13;;;12.90;99.90;;;;;;5012368;28;20045;-65
2023/05/30 09:08:12;;;;;;;8.73;2.92;;;13.00;99.90;;;;;;5012456;28;20061;-65
2023/05/30 09:10:42;;;;;;;8.10;2.80;;;13.00;99.90;;;;;;5012327;28;20077;-65
2023/05/30 09:13:09;;;;;;;8.23;3.00;;;12.90;99.90;;;;;;4961718;28;20140;-65
2023/05/30 09:15:35;;;;;;;8.38;2.80;;;13.00;99.90;;;;;;5012350;28;20081;-65
2023/05/30 09:18:01;;;;;;;10.07;2.90;;;13.00;99.90;;;;;;5012568;28;20502;-65
2023/05/30 09:20:31;;;;;;;7.55;2.55;;;13.20;99.90;;;;;;4995796;28;20096;-65
2023/05/30 09:22:57;;;;;;;7.30;2.70;;;13.20;99.90;;;;;;5013489;28;20042;-65
2023/05/30 09:25:23;;;;;;;6.93;3.10;;;13.30;99.90;;;;;;5013729;28;20077;-65
2023/05/30 09:27:50;;;;;;;6.50;2.55;;;13.40;99.90;;;;;;5012062;28;20085;-65
2023/05/30 09:30:16;;;;;;;7.28;2.70;;;13.40;99.90;;;;;;5012210;28;20049;-65
2023/05/30 09:32:59;;;;;;;6.38;2.80;;;13.40;99.90;;;;;;5013620;28;20048;-65
2023/05/30 09:35:25;;;;;;;;;;;13.40;99.90;;;;;;5012403;28;20074;-65
2023/05/30 09:37:51;;;;;;;8.13;2.78;;;13.40;99.90;;;;;;5012003;28;19956;-65
2023/05/30 09:40:17;;;;;;;9.70;2.65;;;13.40;99.90;;;;;;5013137;28;20034;-65
2023/05/30 09:42:47;;;;;;;7.45;2.42;;;13.40;99.90;;;;;;5013265;28;20048;-65
2023/05/30 09:45:18;;;;;;;7.40;2.75;;;13.30;99.90;;;;;;5011844;28;20045;-65
2023/05/30 09:47:47;;;;;;;5.63;2.30;;;13.30;99.90;;;;;;5013397;28;20126;-65
2023/05/30 09:50:15;;;;;;;6.43;2.50;;;13.20;99.90;;;;;;5012712;28;20125;-65
2023/05/30 09:52:43;;;;;;;6.68;2.35;;;13.30;99.90;;;;;;5017227;28;20033;-68
2023/05/30 09:55:11;;;;;;;6.53;2.50;;;13.20;99.90;;;;;;5015747;28;20046;-67
2023/05/30 09:57:39;;;;;;;6.80;2.80;;;13.30;99.90;;;;;;5000004;28;20046;-66
2023/05/30 10:00:15;;;;;;;7.07;2.65;;;13.30;99.90;;;;;;4999774;28;20042;-66
2023/05/30 10:02:43;;;;;;;4.82;2.30;;;13.30;99.90;;;;;;4999473;28;20140;-66
2023/05/30 10:05:21;;;;;;;6.65;2.40;;;13.40;99.90;;;;;;5015915;28;20041;-67
2023/05/30 10:07:48;;;;;;;5.57;2.10;;;13.50;99.90;;;;;;5015864;28;20053;-65
2023/05/30 10:10:15;;;;;;;6.18;2.10;;;13.60;99.90;;;;;;5015645;28;20057;-68
2023/05/30 10:12:42;;;;;;;4.60;1.70;;;13.70;99.90;;;;;;5016835;28;20054;-66
2023/05/30 10:15:11;;;;;;;5.03;1.85;;;13.80;99.90;;;;;;5015863;28;20441;-65
2023/05/30 10:17:53;;;;;;;6.18;1.60;;;13.90;99.90;;;;;;5015700;28;20042;-66
2023/05/30 10:20:23;;;;;;;4.05;1.63;;;13.90;99.90;;;;;;5014914;28;20057;-65
2023/05/30 10:22:52;;;;;;;4.65;1.60;;;14.00;99.90;;;;;;5015499;28;20053;-65
2023/05/30 10:25:20;;;;;;;5.68;1.60;;;14.00;99.90;;;;;;5015434;28;20042;-65
2023/05/30 10:27:53;;;;;;;4.70;1.50;;;14.10;99.90;;;;;;5015593;28;20498;-65
2023/05/30 10:30:23;;;;;;;5.03;1.60;;;14.20;99.90;;;;;;5014888;28;20058;-65
2023/05/30 10:33:14;;;;;;;4.40;1.70;;;14.30;99.90;;;;;;5016462;28;20049;-65
2023/05/30 10:35:40;;;;;;;5.57;1.80;;;14.50;99.90;;;;;;4998168;28;20049;-65
2023/05/30 10:38:11;;;;;;;6.18;1.90;;;14.50;99.90;;;;;;5016585;28;20046;-65
2023/05/30 10:41:11;;;;;;;6.90;2.00;;;14.50;99.90;;;;;;5015396;28;20073;-64
2023/05/30 10:43:56;;;;;;;5.05;1.80;;;14.60;99.90;;;;;;5015342;28;20042;-65
2023/05/30 10:46:50;;;;;;;4.63;1.90;;;14.60;99.90;;;;;;5015231;28;20401;-64
2023/05/30 10:49:24;;;;;;;4.30;1.88;;;14.40;99.90;;;;;;5014991;28;20056;-64
2023/05/30 10:52:07;;;;;;;5.20;1.70;;;14.30;99.90;;;;;;5014787;28;20057;-65
2023/05/30 10:54:35;;;;;;;5.38;2.00;;;14.30;99.90;;;;;;5014850;28;20053;-65
2023/05/30 10:57:20;;;;;;;5.63;1.67;;;14.20;99.90;;;;;;5014879;28;20045;-64
2023/05/30 10:59:47;;;;;;;4.75;1.70;;;14.20;99.90;;;;;;4998654;28;20050;-64
2023/05/30 11:02:20;;;;;;;10.55;3.05;;;14.30;99.90;;;;;;5013943;28;20478;-65
2023/05/30 11:04:50;;;;;;;3.45;1.50;;;14.40;99.90;;;;;;5014728;28;20046;-65
2023/05/30 11:07:17;;;;;;;4.82;1.70;;;14.40;99.90;;;;;;5014459;28;20053;-65
2023/05/30 11:10:01;;;;;;;3.67;1.40;;;14.40;99.90;;;;;;4998173;28;20128;-65
2023/05/30 11:12:27;;;;;;;5.70;1.70;;;14.30;99.90;;;;;;5015792;28;20099;-65
2023/05/30 11:14:57;;;;;;;4.30;1.50;;;14.20;99.90;;;;;;5015657;28;20046;-65
2023/05/30 11:17:36;;;;;;;4.30;1.52;;;14.30;99.90;;;;;;5014725;28;20049;-65
2023/05/30 11:20:22;;;;;;;5.07;1.70;;;14.30;99.90;;;;;;4997818;28;20054;-65
2023/05/30 11:23:02;;;;;;;3.92;1.75;;;14.30;99.90;;;;;;5014605;28;20050;-65
2023/05/30 11:25:31;;;;;;;4.82;1.50;;;14.40;99.90;;;;;;5016107;28;20132;-76
2023/05/30 11:28:12;;;;;;;4.85;1.80;;;14.50;99.90;;;;;;5014295;28;20050;-76
2023/05/30 11:30:47;;;;;;;4.53;1.98;;;14.60;99.90;;;;;;5014393;28;20049;-75
2023/05/30 11:33:14;;;;;;;5.45;2.10;;;14.70;99.90;;;;;;5013971;28;20046;-76
2023/05/30 11:35:48;;;;;;;4.85;2.28;;;14.70;99.90;;;;;;5014107;28;20042;-76
2023/05/30 11:38:21;;;;;;;6.40;2.38;;;14.70;99.90;;;;;;5013929;28;20045;-76
2023/05/30 11:40:49;;;;;;;4.78;2.22;;;14.80;99.90;;;;;;5014267;28;20128;-76
2023/05/30 11:43:16;;;;;;;4.03;1.77;;;14.90;99.90;;;;;;5014128;28;20050;-77
2023/05/30 11:45:43;;;;;;;4.30;1.80;;;14.80;99.90;;;;;;5013880;28;20081;-76
2023/05/30 11:48:10;;;;;;;4.90;1.60;;;14.80;99.90;;;;;;5013880;28;20046;-76
2023/05/30 11:50:43;;;;;;;4.72;1.70;;;14.70;99.90;;;;;;5013717;28;20108;-75
2023/05/30 11:53:11;;;;;;;3.75;1.58;;;14.60;99.90;;;;;;5013803;28;20042;-76
2023/05/30 11:55:36;;;;;;;3.75;1.65;;;14.60;99.90;;;;;;5013751;28;20046;-76
2023/05/30 11:58:02;;;;;;;4.90;1.90;;;14.50;99.90;;;;;;5013560;28;20041;-76
2023/05/30 12:00:28;;;;;;;4.78;2.20;;;14.50;99.90;;;;;;5013555;28;20100;-76
2023/05/30 12:02:54;;;;;;;5.57;2.10;;;14.50;99.90;;;;;;5013877;28;20044;-76
2023/05/30 12:05:20;;;;;;;5.22;1.80;;;14.40;99.90;;;;;;5013733;28;20494;-76
2023/05/30 12:07:51;;;;;;;4.78;2.25;;;14.40;99.90;;;;;;5013452;28;20052;-76
2023/05/30 12:10:17;;;;;;;4.72;2.00;;;14.50;99.90;;;;;;5013717;28;20441;-76
2023/05/30 12:12:44;;;;;;;5.25;2.00;;;14.60;99.90;;;;;;5014395;28;20080;-76
2023/05/30 12:15:10;;;;;;;4.80;2.28;;;14.80;99.90;;;;;;5014785;28;20096;-76
2023/05/30 12:17:39;;;;;;;4.55;2.28;;;14.90;99.90;;;;;;5013518;28;20482;-76
2023/05/30 12:20:09;;;;;;;5.93;2.20;;;15.20;99.90;;;;;;5014192;28;20060;-76
2023/05/30 12:22:35;;;;;;;4.50;1.92;;;15.30;99.90;;;;;;5013295;28;20180;-76
2023/05/30 12:25:11;;;;;;;8.13;2.25;;;15.40;99.90;;;;;;5013353;28;20050;-76
2023/05/30 12:27:43;;;;;;;6.68;2.50;;;15.50;99.90;;;;;;5013421;28;20042;-76
2023/05/30 12:30:14;;;;;;;6.25;2.40;;;15.50;99.90;;;;;;5013087;28;20048;-76
2023/05/30 12:32:40;;;;;;;5.30;1.80;;;15.40;99.90;;;;;;5012957;28;20058;-76
2023/05/30 12:35:06;;;;;;;3.70;1.70;;;15.50;99.90;;;;;;4996873;28;20045;-76
2023/05/30 12:37:32;;;;;;;4.85;1.90;;;15.50;99.90;;;;;;5012898;28;20045;-77
2023/05/30 12:39:59;;;;;;;4.93;2.08;;;15.50;99.90;;;;;;5013240;28;20073;-77
2023/05/30 12:42:30;;;;;;;4.47;1.83;;;15.40;99.90;;;;;;5013039;28;20520;-77
2023/05/30 12:45:06;;;;;;;4.75;1.90;;;15.50;99.90;;;;;;5012794;28;20046;-77